sensor_id;sensor_type;location;lat;lon;timestamp;P1;durP1;ratioP1;P2;durP2;ratioP2
61038;SDS011;46919;45.816;3.104;2022-12-07T00:01:29;24.23;;;13.90;;
61038;SDS011;46919;45.816;3.104;2022-12-07T00:03:57;27.52;;;12.77;;
61038;SDS011;46919;45.816;3.104;2022-12-07T00:06:37;24.40;;;12.70;;
61038;SDS011;46919;45.816;3.104;2022-12-07T00:09:05;22.73;;;12.48;;
61038;SDS011;46919;45.816;3.104;2022-12-07T00:11:31;24.92;;;13.55;;
61038;SDS011;46919;45.816;3.104;2022-12-07T00:13:58;26.02;;;13.27;;
61038;SDS011;46919;45.816;3.104;2022-12-07T00:16:27;32.83;;;13.90;;
61038;SDS011;46919;45.816;3.104;2022-12-07T00:18:55;23.98;;;13.05;;
61038;SDS011;46919;45.816;3.104;2022-12-07T00:21:22;26.55;;;13.98;;
61038;SDS011;46919;45.816;3.104;2022-12-07T00:23:50;27.92;;;14.35;;
61038;SDS011;46919;45.816;3.104;2022-12-07T00:26:21;26.02;;;14.77;;
61038;SDS011;46919;45.816;3.104;2022-12-07T00:28:48;26.30;;;13.90;;
61038;SDS011;46919;45.816;3.104;2022-12-07T00:31:19;26.70;;;13.75;;
61038;SDS011;46919;45.816;3.104;2022-12-07T00:33:46;27.67;;;14.45;;
61038;SDS011;46919;45.816;3.104;2022-12-07T00:36:16;22.52;;;12.93;;
61038;SDS011;46919;45.816;3.104;2022-12-07T00:38:43;27.98;;;13.77;;
61038;SDS011;46919;45.816;3.104;2022-12-07T00:41:13;24.17;;;13.43;;
61038;SDS011;46919;45.816;3.104;2022-12-07T00:43:43;25.90;;;13.32;;
61038;SDS011;46919;45.816;3.104;2022-12-07T00:46:10;23.85;;;12.80;;
61038;SDS011;46919;45.816;3.104;2022-12-07T00:48:37;28.10;;;13.77;;
61038;SDS011;46919;45.816;3.104;2022-12-07T00:51:03;31.10;;;15.45;;
61038;SDS011;46919;45.816;3.104;2022-12-07T00:53:29;34.67;;;18.23;;
61038;SDS011;46919;45.816;3.104;2022-12-07T00:55:55;35.97;;;17.83;;
61038;SDS011;46919;45.816;3.104;2022-12-07T00:58:21;35.65;;;18.17;;
61038;SDS011;46919;45.816;3.104;2022-12-07T01:00:47;33.88;;;17.58;;
61038;SDS011;46919;45.816;3.104;2022-12-07T01:03:14;35.67;;;17.70;;
61038;SDS011;46919;45.816;3.104;2022-12-07T01:05:40;30.85;;;17.10;;
61038;SDS011;46919;45.816;3.104;2022-12-07T01:08:14;34.58;;;17.02;;
61038;SDS011;46919;45.816;3.104;2022-12-07T01:10:40;27.60;;;15.07;;
61038;SDS011;46919;45.816;3.104;2022-12-07T01:13:05;29.05;;;14.93;;
61038;SDS011;46919;45.816;3.104;2022-12-07T01:15:31;31.05;;;15.82;;
61038;SDS011;46919;45.816;3.104;2022-12-07T01:17:56;30.85;;;15.10;;
61038;SDS011;46919;45.816;3.104;2022-12-07T01:20:21;25.48;;;15.15;;
61038;SDS011;46919;45.816;3.104;2022-12-07T01:22:47;32.22;;;16.38;;
61038;SDS011;46919;45.816;3.104;2022-12-07T01:25:12;25.40;;;14.27;;
61038;SDS011;46919;45.816;3.104;2022-12-07T01:27:38;26.67;;;13.85;;
61038;SDS011;46919;45.816;3.104;2022-12-07T01:30:04;28.30;;;14.93;;
61038;SDS011;46919;45.816;3.104;2022-12-07T01:32:32;27.90;;;15.48;;
61038;SDS011;46919;45.816;3.104;2022-12-07T01:34:58;25.70;;;14.20;;
61038;SDS011;46919;45.816;3.104;2022-12-07T01:37:24;32.55;;;15.68;;
61038;SDS011;46919;45.816;3.104;2022-12-07T01:39:50;29.35;;;16.08;;
61038;SDS011;46919;45.816;3.104;2022-12-07T01:42:16;29.25;;;15.10;;
61038;SDS011;46919;45.816;3.104;2022-12-07T01:47:47;29.83;;;15.07;;
61038;SDS011;46919;45.816;3.104;2022-12-07T01:50:18;28.63;;;16.15;;
61038;SDS011;46919;45.816;3.104;2022-12-07T01:52:45;30.38;;;15.50;;
61038;SDS011;46919;45.816;3.104;2022-12-07T01:55:14;32.22;;;16.40;;
61038;SDS011;46919;45.816;3.104;2022-12-07T01:57:42;30.65;;;16.85;;
61038;SDS011;46919;45.816;3.104;2022-12-07T02:00:12;31.13;;;17.60;;
61038;SDS011;46919;45.816;3.104;2022-12-07T02:02:42;34.42;;;18.15;;
61038;SDS011;46919;45.816;3.104;2022-12-07T02:05:12;34.13;;;17.65;;
61038;SDS011;46919;45.816;3.104;2022-12-07T02:07:38;32.47;;;17.65;;
61038;SDS011;46919;45.816;3.104;2022-12-07T02:12:47;34.17;;;17.88;;
61038;SDS011;46919;45.816;3.104;2022-12-07T02:15:16;31.30;;;16.38;;
61038;SDS011;46919;45.816;3.104;2022-12-07T02:17:49;31.77;;;17.00;;
61038;SDS011;46919;45.816;3.104;2022-12-07T02:23:04;30.08;;;16.35;;
61038;SDS011;46919;45.816;3.104;2022-12-07T02:31:14;32.03;;;16.48;;
61038;SDS011;46919;45.816;3.104;2022-12-07T02:33:46;29.42;;;16.70;;
61038;SDS011;46919;45.816;3.104;2022-12-07T02:36:27;32.22;;;16.83;;
61038;SDS011;46919;45.816;3.104;2022-12-07T02:39:06;33.80;;;16.80;;
61038;SDS011;46919;45.816;3.104;2022-12-07T02:41:40;34.90;;;17.45;;
61038;SDS011;46919;45.816;3.104;2022-12-07T02:44:12;29.55;;;15.95;;
61038;SDS011;46919;45.816;3.104;2022-12-07T02:46:47;29.88;;;15.90;;
61038;SDS011;46919;45.816;3.104;2022-12-07T02:49:18;30.67;;;15.40;;
61038;SDS011;46919;45.816;3.104;2022-12-07T02:51:46;29.27;;;15.75;;
61038;SDS011;46919;45.816;3.104;2022-12-07T02:54:12;28.30;;;15.57;;
61038;SDS011;46919;45.816;3.104;2022-12-07T03:13:22;27.92;;;15.10;;
61038;SDS011;46919;45.816;3.104;2022-12-07T03:15:59;26.00;;;15.23;;
61038;SDS011;46919;45.816;3.104;2022-12-07T03:19:06;28.52;;;15.43;;
61038;SDS011;46919;45.816;3.104;2022-12-07T03:21:39;30.88;;;16.15;;
61038;SDS011;46919;45.816;3.104;2022-12-07T03:24:21;30.08;;;15.13;;
61038;SDS011;46919;45.816;3.104;2022-12-07T03:26:53;29.45;;;15.40;;
61038;SDS011;46919;45.816;3.104;2022-12-07T03:29:31;27.73;;;14.55;;
61038;SDS011;46919;45.816;3.104;2022-12-07T03:32:09;30.10;;;15.73;;
61038;SDS011;46919;45.816;3.104;2022-12-07T03:37:49;29.67;;;15.68;;
61038;SDS011;46919;45.816;3.104;2022-12-07T03:40:28;28.45;;;15.32;;
61038;SDS011;46919;45.816;3.104;2022-12-07T03:42:59;28.13;;;14.82;;
61038;SDS011;46919;45.816;3.104;2022-12-07T03:45:30;30.67;;;15.40;;
61038;SDS011;46919;45.816;3.104;2022-12-07T03:48:14;25.73;;;14.57;;
61038;SDS011;46919;45.816;3.104;2022-12-07T03:53:41;25.10;;;15.05;;
61038;SDS011;46919;45.816;3.104;2022-12-07T03:56:11;27.20;;;14.98;;
61038;SDS011;46919;45.816;3.104;2022-12-07T03:58:37;25.45;;;14.75;;
61038;SDS011;46919;45.816;3.104;2022-12-07T04:01:04;28.92;;;15.98;;
61038;SDS011;46919;45.816;3.104;2022-12-07T04:03:30;27.35;;;15.98;;
61038;SDS011;46919;45.816;3.104;2022-12-07T04:05:55;24.98;;;14.60;;
61038;SDS011;46919;45.816;3.104;2022-12-07T04:08:22;25.35;;;15.48;;
61038;SDS011;46919;45.816;3.104;2022-12-07T04:10:48;31.67;;;15.30;;
61038;SDS011;46919;45.816;3.104;2022-12-07T04:13:13;26.50;;;15.18;;
61038;SDS011;46919;45.816;3.104;2022-12-07T04:15:39;27.73;;;15.38;;
61038;SDS011;46919;45.816;3.104;2022-12-07T04:18:04;25.23;;;14.45;;
61038;SDS011;46919;45.816;3.104;2022-12-07T04:20:29;30.23;;;15.18;;
61038;SDS011;46919;45.816;3.104;2022-12-07T04:22:55;28.02;;;15.55;;
61038;SDS011;46919;45.816;3.104;2022-12-07T04:25:20;29.75;;;16.08;;
61038;SDS011;46919;45.816;3.104;2022-12-07T04:27:46;30.05;;;16.35;;
61038;SDS011;46919;45.816;3.104;2022-12-07T04:30:11;27.98;;;14.75;;
61038;SDS011;46919;45.816;3.104;2022-12-07T04:32:37;27.88;;;15.32;;
61038;SDS011;46919;45.816;3.104;2022-12-07T04:35:03;26.65;;;14.38;;
61038;SDS011;46919;45.816;3.104;2022-12-07T04:37:28;26.85;;;15.10;;
61038;SDS011;46919;45.816;3.104;2022-12-07T04:39:54;26.80;;;14.73;;
61038;SDS011;46919;45.816;3.104;2022-12-07T04:42:19;26.98;;;15.38;;
61038;SDS011;46919;45.816;3.104;2022-12-07T04:44:45;27.60;;;15.07;;
61038;SDS011;46919;45.816;3.104;2022-12-07T04:47:10;24.95;;;14.15;;
61038;SDS011;46919;45.816;3.104;2022-12-07T04:49:36;27.98;;;15.43;;
61038;SDS011;46919;45.816;3.104;2022-12-07T04:52:01;26.45;;;14.75;;
61038;SDS011;46919;45.816;3.104;2022-12-07T04:54:27;24.63;;;13.50;;
61038;SDS011;46919;45.816;3.104;2022-12-07T04:56:52;27.27;;;15.15;;
61038;SDS011;46919;45.816;3.104;2022-12-07T04:59:17;26.60;;;15.38;;
61038;SDS011;46919;45.816;3.104;2022-12-07T05:01:43;30.70;;;14.80;;
61038;SDS011;46919;45.816;3.104;2022-12-07T05:04:08;25.40;;;14.05;;
61038;SDS011;46919;45.816;3.104;2022-12-07T05:06:34;25.45;;;13.88;;
61038;SDS011;46919;45.816;3.104;2022-12-07T05:09:00;26.73;;;14.95;;
61038;SDS011;46919;45.816;3.104;2022-12-07T05:11:25;26.77;;;14.85;;
61038;SDS011;46919;45.816;3.104;2022-12-07T05:14:04;28.73;;;15.00;;
61038;SDS011;46919;45.816;3.104;2022-12-07T05:16:32;26.63;;;14.43;;
61038;SDS011;46919;45.816;3.104;2022-12-07T05:18:58;26.23;;;14.85;;
61038;SDS011;46919;45.816;3.104;2022-12-07T05:21:23;28.40;;;14.93;;
61038;SDS011;46919;45.816;3.104;2022-12-07T05:23:49;22.38;;;13.07;;
61038;SDS011;46919;45.816;3.104;2022-12-07T05:26:15;25.27;;;13.85;;
61038;SDS011;46919;45.816;3.104;2022-12-07T05:28:40;25.27;;;14.18;;
61038;SDS011;46919;45.816;3.104;2022-12-07T05:31:06;24.88;;;13.90;;
61038;SDS011;46919;45.816;3.104;2022-12-07T05:33:31;25.83;;;14.32;;
61038;SDS011;46919;45.816;3.104;2022-12-07T05:35:57;24.58;;;14.32;;
61038;SDS011;46919;45.816;3.104;2022-12-07T05:38:23;25.42;;;14.20;;
61038;SDS011;46919;45.816;3.104;2022-12-07T05:40:49;23.73;;;14.25;;
61038;SDS011;46919;45.816;3.104;2022-12-07T05:43:15;24.98;;;14.23;;
61038;SDS011;46919;45.816;3.104;2022-12-07T05:45:40;25.40;;;13.20;;
61038;SDS011;46919;45.816;3.104;2022-12-07T05:48:06;31.02;;;13.82;;
61038;SDS011;46919;45.816;3.104;2022-12-07T05:50:32;25.83;;;13.63;;
61038;SDS011;46919;45.816;3.104;2022-12-07T05:52:57;28.13;;;14.73;;
61038;SDS011;46919;45.816;3.104;2022-12-07T05:55:22;27.65;;;14.65;;
61038;SDS011;46919;45.816;3.104;2022-12-07T05:57:48;25.15;;;13.93;;
61038;SDS011;46919;45.816;3.104;2022-12-07T06:00:32;26.50;;;14.20;;
61038;SDS011;46919;45.816;3.104;2022-12-07T06:02:57;25.23;;;13.52;;
61038;SDS011;46919;45.816;3.104;2022-12-07T06:05:23;25.10;;;14.10;;
61038;SDS011;46919;45.816;3.104;2022-12-07T06:07:49;24.00;;;13.95;;
61038;SDS011;46919;45.816;3.104;2022-12-07T06:10:14;24.92;;;14.10;;
61038;SDS011;46919;45.816;3.104;2022-12-07T06:12:40;24.17;;;13.80;;
61038;SDS011;46919;45.816;3.104;2022-12-07T06:15:07;28.95;;;14.25;;
61038;SDS011;46919;45.816;3.104;2022-12-07T06:17:34;24.00;;;13.65;;
61038;SDS011;46919;45.816;3.104;2022-12-07T06:19:59;24.92;;;13.98;;
61038;SDS011;46919;45.816;3.104;2022-12-07T06:22:24;27.17;;;14.35;;
61038;SDS011;46919;45.816;3.104;2022-12-07T06:24:50;27.90;;;14.27;;
61038;SDS011;46919;45.816;3.104;2022-12-07T06:27:15;29.00;;;15.07;;
61038;SDS011;46919;45.816;3.104;2022-12-07T06:29:41;24.63;;;13.82;;
61038;SDS011;46919;45.816;3.104;2022-12-07T06:32:06;24.27;;;14.07;;
61038;SDS011;46919;45.816;3.104;2022-12-07T06:34:31;24.33;;;13.93;;
61038;SDS011;46919;45.816;3.104;2022-12-07T06:36:57;26.02;;;15.10;;
61038;SDS011;46919;45.816;3.104;2022-12-07T06:39:24;30.00;;;15.57;;
61038;SDS011;46919;45.816;3.104;2022-12-07T06:41:50;28.55;;;14.82;;
61038;SDS011;46919;45.816;3.104;2022-12-07T06:44:17;29.92;;;15.23;;
61038;SDS011;46919;45.816;3.104;2022-12-07T06:46:43;26.55;;;15.25;;
61038;SDS011;46919;45.816;3.104;2022-12-07T06:49:09;27.17;;;15.25;;
61038;SDS011;46919;45.816;3.104;2022-12-07T06:51:34;28.83;;;15.02;;
61038;SDS011;46919;45.816;3.104;2022-12-07T06:54:02;30.80;;;17.55;;
61038;SDS011;46919;45.816;3.104;2022-12-07T06:56:28;28.95;;;16.20;;
61038;SDS011;46919;45.816;3.104;2022-12-07T06:58:54;30.33;;;16.83;;
61038;SDS011;46919;45.816;3.104;2022-12-07T07:01:19;27.23;;;15.40;;
61038;SDS011;46919;45.816;3.104;2022-12-07T07:03:45;28.77;;;14.95;;
61038;SDS011;46919;45.816;3.104;2022-12-07T07:06:12;24.67;;;15.05;;
61038;SDS011;46919;45.816;3.104;2022-12-07T07:08:38;27.80;;;14.48;;
61038;SDS011;46919;45.816;3.104;2022-12-07T07:11:05;27.40;;;14.32;;
61038;SDS011;46919;45.816;3.104;2022-12-07T07:13:31;25.23;;;14.50;;
61038;SDS011;46919;45.816;3.104;2022-12-07T07:15:57;28.08;;;14.23;;
61038;SDS011;46919;45.816;3.104;2022-12-07T07:18:23;26.40;;;15.85;;
61038;SDS011;46919;45.816;3.104;2022-12-07T07:20:49;27.10;;;15.30;;
61038;SDS011;46919;45.816;3.104;2022-12-07T07:23:16;29.80;;;15.57;;
61038;SDS011;46919;45.816;3.104;2022-12-07T07:25:41;29.15;;;15.93;;
61038;SDS011;46919;45.816;3.104;2022-12-07T07:28:07;28.15;;;16.08;;
61038;SDS011;46919;45.816;3.104;2022-12-07T07:30:32;26.98;;;15.77;;
61038;SDS011;46919;45.816;3.104;2022-12-07T07:32:58;32.58;;;17.33;;
61038;SDS011;46919;45.816;3.104;2022-12-07T07:35:25;37.97;;;23.08;;
61038;SDS011;46919;45.816;3.104;2022-12-07T07:37:51;38.22;;;21.75;;
61038;SDS011;46919;45.816;3.104;2022-12-07T07:40:17;32.47;;;18.20;;
61038;SDS011;46919;45.816;3.104;2022-12-07T07:42:42;35.90;;;21.23;;
61038;SDS011;46919;45.816;3.104;2022-12-07T07:45:08;32.08;;;18.20;;
61038;SDS011;46919;45.816;3.104;2022-12-07T07:47:34;31.02;;;16.60;;
61038;SDS011;46919;45.816;3.104;2022-12-07T07:49:59;35.55;;;17.27;;
61038;SDS011;46919;45.816;3.104;2022-12-07T07:52:25;31.00;;;18.15;;
61038;SDS011;46919;45.816;3.104;2022-12-07T07:54:51;30.35;;;16.40;;
61038;SDS011;46919;45.816;3.104;2022-12-07T07:57:17;34.05;;;19.02;;
61038;SDS011;46919;45.816;3.104;2022-12-07T07:59:43;51.80;;;25.95;;
61038;SDS011;46919;45.816;3.104;2022-12-07T08:02:15;42.15;;;20.40;;
61038;SDS011;46919;45.816;3.104;2022-12-07T08:04:42;33.67;;;18.13;;
61038;SDS011;46919;45.816;3.104;2022-12-07T08:07:08;33.40;;;18.38;;
61038;SDS011;46919;45.816;3.104;2022-12-07T08:09:34;32.13;;;17.30;;
61038;SDS011;46919;45.816;3.104;2022-12-07T08:11:59;34.75;;;17.52;;
61038;SDS011;46919;45.816;3.104;2022-12-07T08:14:25;28.92;;;16.73;;
61038;SDS011;46919;45.816;3.104;2022-12-07T08:16:52;34.90;;;17.52;;
61038;SDS011;46919;45.816;3.104;2022-12-07T08:19:17;34.50;;;17.83;;
61038;SDS011;46919;45.816;3.104;2022-12-07T08:21:43;29.60;;;16.52;;
61038;SDS011;46919;45.816;3.104;2022-12-07T08:24:08;28.40;;;15.45;;
61038;SDS011;46919;45.816;3.104;2022-12-07T08:26:34;29.83;;;15.95;;
61038;SDS011;46919;45.816;3.104;2022-12-07T08:28:59;30.15;;;16.85;;
61038;SDS011;46919;45.816;3.104;2022-12-07T08:31:24;33.13;;;17.13;;
61038;SDS011;46919;45.816;3.104;2022-12-07T08:33:50;31.45;;;16.23;;
61038;SDS011;46919;45.816;3.104;2022-12-07T08:36:15;30.77;;;16.08;;
61038;SDS011;46919;45.816;3.104;2022-12-07T08:38:41;32.60;;;17.65;;
61038;SDS011;46919;45.816;3.104;2022-12-07T08:41:07;37.60;;;19.15;;
61038;SDS011;46919;45.816;3.104;2022-12-07T08:43:34;39.58;;;19.17;;
61038;SDS011;46919;45.816;3.104;2022-12-07T08:47:02;41.30;;;20.73;;
61038;SDS011;46919;45.816;3.104;2022-12-07T08:49:08;33.30;;;17.98;;
61038;SDS011;46919;45.816;3.104;2022-12-07T08:51:40;27.10;;;15.55;;
61038;SDS011;46919;45.816;3.104;2022-12-07T08:54:07;23.73;;;14.30;;
61038;SDS011;46919;45.816;3.104;2022-12-07T08:56:35;28.80;;;15.48;;
61038;SDS011;46919;45.816;3.104;2022-12-07T08:59:01;29.42;;;15.52;;
61038;SDS011;46919;45.816;3.104;2022-12-07T09:01:28;28.08;;;16.38;;
61038;SDS011;46919;45.816;3.104;2022-12-07T09:03:54;28.45;;;16.55;;
61038;SDS011;46919;45.816;3.104;2022-12-07T09:06:19;27.33;;;15.70;;
61038;SDS011;46919;45.816;3.104;2022-12-07T09:08:46;29.65;;;16.13;;
61038;SDS011;46919;45.816;3.104;2022-12-07T09:11:14;31.45;;;15.75;;
61038;SDS011;46919;45.816;3.104;2022-12-07T09:13:40;28.25;;;15.10;;
61038;SDS011;46919;45.816;3.104;2022-12-07T09:16:05;29.58;;;16.10;;
61038;SDS011;46919;45.816;3.104;2022-12-07T09:18:31;27.65;;;15.85;;
61038;SDS011;46919;45.816;3.104;2022-12-07T09:20:56;30.55;;;16.45;;
61038;SDS011;46919;45.816;3.104;2022-12-07T09:23:21;34.90;;;19.38;;
61038;SDS011;46919;45.816;3.104;2022-12-07T09:25:47;35.33;;;20.85;;
61038;SDS011;46919;45.816;3.104;2022-12-07T09:28:12;32.33;;;17.58;;
61038;SDS011;46919;45.816;3.104;2022-12-07T09:30:38;26.63;;;16.25;;
61038;SDS011;46919;45.816;3.104;2022-12-07T09:33:03;32.20;;;18.63;;
61038;SDS011;46919;45.816;3.104;2022-12-07T09:35:28;39.63;;;20.70;;
61038;SDS011;46919;45.816;3.104;2022-12-07T09:37:54;35.50;;;19.58;;
61038;SDS011;46919;45.816;3.104;2022-12-07T09:40:20;34.55;;;18.98;;
61038;SDS011;46919;45.816;3.104;2022-12-07T09:42:48;37.17;;;19.58;;
61038;SDS011;46919;45.816;3.104;2022-12-07T09:45:19;33.75;;;18.35;;
61038;SDS011;46919;45.816;3.104;2022-12-07T09:47:48;34.88;;;18.80;;
61038;SDS011;46919;45.816;3.104;2022-12-07T09:50:19;30.42;;;17.38;;
61038;SDS011;46919;45.816;3.104;2022-12-07T09:55:13;32.05;;;16.98;;
61038;SDS011;46919;45.816;3.104;2022-12-07T09:57:51;26.77;;;15.25;;
61038;SDS011;46919;45.816;3.104;2022-12-07T10:00:18;29.60;;;16.30;;
61038;SDS011;46919;45.816;3.104;2022-12-07T10:02:51;29.38;;;16.63;;
61038;SDS011;46919;45.816;3.104;2022-12-07T10:05:38;27.98;;;15.63;;
61038;SDS011;46919;45.816;3.104;2022-12-07T10:08:12;27.25;;;15.52;;
61038;SDS011;46919;45.816;3.104;2022-12-07T10:10:38;27.20;;;14.85;;
61038;SDS011;46919;45.816;3.104;2022-12-07T10:13:11;27.98;;;16.33;;
61038;SDS011;46919;45.816;3.104;2022-12-07T10:15:46;27.52;;;15.23;;
61038;SDS011;46919;45.816;3.104;2022-12-07T10:21:26;27.58;;;15.57;;
61038;SDS011;46919;45.816;3.104;2022-12-07T10:26:48;27.83;;;16.02;;
61038;SDS011;46919;45.816;3.104;2022-12-07T10:31:43;26.65;;;15.35;;
61038;SDS011;46919;45.816;3.104;2022-12-07T10:39:44;26.65;;;14.57;;
61038;SDS011;46919;45.816;3.104;2022-12-07T10:42:22;27.42;;;15.45;;
61038;SDS011;46919;45.816;3.104;2022-12-07T10:45:16;26.45;;;14.82;;
61038;SDS011;46919;45.816;3.104;2022-12-07T10:53:01;29.88;;;16.25;;
61038;SDS011;46919;45.816;3.104;2022-12-07T10:58:26;31.13;;;17.60;;
61038;SDS011;46919;45.816;3.104;2022-12-07T11:12:24;26.02;;;14.52;;
61038;SDS011;46919;45.816;3.104;2022-12-07T11:17:47;27.77;;;15.93;;
61038;SDS011;46919;45.816;3.104;2022-12-07T11:23:27;25.42;;;14.05;;
61038;SDS011;46919;45.816;3.104;2022-12-07T11:36:41;21.80;;;14.10;;
61038;SDS011;46919;45.816;3.104;2022-12-07T11:39:22;21.60;;;13.52;;
61038;SDS011;46919;45.816;3.104;2022-12-07T11:42:28;25.33;;;14.73;;
61038;SDS011;46919;45.816;3.104;2022-12-07T11:47:59;26.30;;;15.77;;
61038;SDS011;46919;45.816;3.104;2022-12-07T11:50:39;25.90;;;15.65;;
61038;SDS011;46919;45.816;3.104;2022-12-07T11:55:52;24.60;;;15.05;;
61038;SDS011;46919;45.816;3.104;2022-12-07T12:03:58;19.58;;;12.27;;
61038;SDS011;46919;45.816;3.104;2022-12-07T12:06:37;20.95;;;13.65;;
61038;SDS011;46919;45.816;3.104;2022-12-07T12:09:05;16.20;;;10.85;;
61038;SDS011;46919;45.816;3.104;2022-12-07T12:22:10;6.95;;;4.95;;
61038;SDS011;46919;45.816;3.104;2022-12-07T12:24:41;8.98;;;6.38;;
61038;SDS011;46919;45.816;3.104;2022-12-07T12:27:15;18.10;;;10.82;;
61038;SDS011;46919;45.816;3.104;2022-12-07T12:30:03;18.37;;;12.37;;
61038;SDS011;46919;45.816;3.104;2022-12-07T12:32:41;14.07;;;10.13;;
61038;SDS011;46919;45.816;3.104;2022-12-07T12:35:20;13.95;;;9.63;;
61038;SDS011;46919;45.816;3.104;2022-12-07T12:37:53;17.23;;;11.90;;
61038;SDS011;46919;45.816;3.104;2022-12-07T12:42:54;13.73;;;9.68;;
61038;SDS011;46919;45.816;3.104;2022-12-07T12:45:22;13.60;;;9.07;;
61038;SDS011;46919;45.816;3.104;2022-12-07T12:47:53;10.48;;;7.45;;
61038;SDS011;46919;45.816;3.104;2022-12-07T12:50:22;11.38;;;8.40;;
61038;SDS011;46919;45.816;3.104;2022-12-07T13:00:44;7.88;;;4.80;;
61038;SDS011;46919;45.816;3.104;2022-12-07T13:03:22;8.48;;;5.55;;
61038;SDS011;46919;45.816;3.104;2022-12-07T13:08:55;13.98;;;8.95;;
61038;SDS011;46919;45.816;3.104;2022-12-07T13:17:11;20.15;;;12.93;;
61038;SDS011;46919;45.816;3.104;2022-12-07T13:19:56;19.58;;;12.98;;
61038;SDS011;46919;45.816;3.104;2022-12-07T13:25:10;19.80;;;11.68;;
61038;SDS011;46919;45.816;3.104;2022-12-07T13:27:45;15.18;;;10.50;;
61038;SDS011;46919;45.816;3.104;2022-12-07T13:30:18;15.75;;;9.43;;
61038;SDS011;46919;45.816;3.104;2022-12-07T13:32:55;15.32;;;10.18;;
61038;SDS011;46919;45.816;3.104;2022-12-07T13:35:32;13.05;;;8.38;;
61038;SDS011;46919;45.816;3.104;2022-12-07T13:44:07;16.25;;;8.80;;
61038;SDS011;46919;45.816;3.104;2022-12-07T13:47:23;12.55;;;7.13;;
61038;SDS011;46919;45.816;3.104;2022-12-07T13:49:47;11.18;;;7.05;;
61038;SDS011;46919;45.816;3.104;2022-12-07T13:54:45;11.63;;;5.95;;
61038;SDS011;46919;45.816;3.104;2022-12-07T13:57:21;9.20;;;5.03;;
61038;SDS011;46919;45.816;3.104;2022-12-07T13:59:47;8.57;;;5.40;;
61038;SDS011;46919;45.816;3.104;2022-12-07T14:02:17;8.40;;;5.57;;
61038;SDS011;46919;45.816;3.104;2022-12-07T14:04:49;9.93;;;5.68;;
61038;SDS011;46919;45.816;3.104;2022-12-07T14:07:24;8.52;;;5.40;;
61038;SDS011;46919;45.816;3.104;2022-12-07T14:09:59;8.75;;;5.72;;
61038;SDS011;46919;45.816;3.104;2022-12-07T14:12:26;49.10;;;30.00;;
61038;SDS011;46919;45.816;3.104;2022-12-07T14:14:53;8.45;;;6.90;;
61038;SDS011;46919;45.816;3.104;2022-12-07T14:17:21;10.35;;;6.82;;
61038;SDS011;46919;45.816;3.104;2022-12-07T14:19:58;13.45;;;10.32;;
61038;SDS011;46919;45.816;3.104;2022-12-07T14:22:27;10.70;;;6.85;;
61038;SDS011;46919;45.816;3.104;2022-12-07T14:25:14;9.25;;;6.70;;
61038;SDS011;46919;45.816;3.104;2022-12-07T14:27:51;7.30;;;5.32;;
61038;SDS011;46919;45.816;3.104;2022-12-07T14:30:25;8.10;;;5.47;;
61038;SDS011;46919;45.816;3.104;2022-12-07T14:33:04;9.43;;;5.63;;
61038;SDS011;46919;45.816;3.104;2022-12-07T14:35:31;10.40;;;6.32;;
61038;SDS011;46919;45.816;3.104;2022-12-07T14:37:57;9.50;;;5.40;;
61038;SDS011;46919;45.816;3.104;2022-12-07T14:40:24;9.45;;;7.00;;
61038;SDS011;46919;45.816;3.104;2022-12-07T14:42:55;8.85;;;5.03;;
61038;SDS011;46919;45.816;3.104;2022-12-07T14:45:24;6.90;;;5.28;;
61038;SDS011;46919;45.816;3.104;2022-12-07T14:47:50;7.43;;;5.43;;
61038;SDS011;46919;45.816;3.104;2022-12-07T14:50:16;8.32;;;5.78;;
61038;SDS011;46919;45.816;3.104;2022-12-07T14:52:43;7.43;;;4.25;;
61038;SDS011;46919;45.816;3.104;2022-12-07T14:55:46;9.93;;;5.25;;
61038;SDS011;46919;45.816;3.104;2022-12-07T14:58:04;7.47;;;4.80;;
61038;SDS011;46919;45.816;3.104;2022-12-07T15:00:30;8.13;;;4.50;;
61038;SDS011;46919;45.816;3.104;2022-12-07T15:02:56;6.70;;;4.85;;
61038;SDS011;46919;45.816;3.104;2022-12-07T15:05:22;8.27;;;6.05;;
61038;SDS011;46919;45.816;3.104;2022-12-07T15:07:47;12.27;;;8.23;;
61038;SDS011;46919;45.816;3.104;2022-12-07T15:10:21;10.65;;;7.55;;
61038;SDS011;46919;45.816;3.104;2022-12-07T15:12:48;9.77;;;8.00;;
61038;SDS011;46919;45.816;3.104;2022-12-07T15:15:14;17.73;;;12.23;;
61038;SDS011;46919;45.816;3.104;2022-12-07T15:17:39;15.85;;;10.55;;
61038;SDS011;46919;45.816;3.104;2022-12-07T15:20:07;34.35;;;22.83;;
61038;SDS011;46919;45.816;3.104;2022-12-07T15:22:36;21.48;;;14.93;;
61038;SDS011;46919;45.816;3.104;2022-12-07T15:25:01;10.20;;;7.55;;
61038;SDS011;46919;45.816;3.104;2022-12-07T15:27:29;10.30;;;6.68;;
61038;SDS011;46919;45.816;3.104;2022-12-07T15:29:55;9.15;;;6.78;;
61038;SDS011;46919;45.816;3.104;2022-12-07T15:32:20;7.13;;;5.82;;
61038;SDS011;46919;45.816;3.104;2022-12-07T15:34:47;10.50;;;8.93;;
61038;SDS011;46919;45.816;3.104;2022-12-07T15:37:13;6.68;;;4.45;;
61038;SDS011;46919;45.816;3.104;2022-12-07T15:39:38;6.13;;;4.68;;
61038;SDS011;46919;45.816;3.104;2022-12-07T15:42:04;6.90;;;5.20;;
61038;SDS011;46919;45.816;3.104;2022-12-07T15:44:29;7.50;;;6.18;;
61038;SDS011;46919;45.816;3.104;2022-12-07T15:47:13;9.27;;;6.10;;
61038;SDS011;46919;45.816;3.104;2022-12-07T15:49:38;5.95;;;5.15;;
61038;SDS011;46919;45.816;3.104;2022-12-07T15:52:03;8.23;;;4.50;;
61038;SDS011;46919;45.816;3.104;2022-12-07T15:54:29;8.93;;;7.18;;
61038;SDS011;46919;45.816;3.104;2022-12-07T15:56:56;6.40;;;4.43;;
61038;SDS011;46919;45.816;3.104;2022-12-07T15:59:21;7.35;;;5.55;;
61038;SDS011;46919;45.816;3.104;2022-12-07T16:01:47;9.13;;;5.57;;
61038;SDS011;46919;45.816;3.104;2022-12-07T16:04:13;7.35;;;5.47;;
61038;SDS011;46919;45.816;3.104;2022-12-07T16:06:38;9.55;;;6.68;;
61038;SDS011;46919;45.816;3.104;2022-12-07T16:09:04;9.13;;;6.00;;
61038;SDS011;46919;45.816;3.104;2022-12-07T16:11:31;8.98;;;5.15;;
61038;SDS011;46919;45.816;3.104;2022-12-07T16:13:56;11.90;;;5.07;;
61038;SDS011;46919;45.816;3.104;2022-12-07T16:16:22;6.03;;;4.72;;
61038;SDS011;46919;45.816;3.104;2022-12-07T16:18:48;7.10;;;4.68;;
61038;SDS011;46919;45.816;3.104;2022-12-07T16:21:14;7.05;;;4.70;;
61038;SDS011;46919;45.816;3.104;2022-12-07T16:23:40;7.05;;;4.93;;
61038;SDS011;46919;45.816;3.104;2022-12-07T16:26:08;7.78;;;5.05;;
61038;SDS011;46919;45.816;3.104;2022-12-07T16:28:36;9.98;;;5.25;;
61038;SDS011;46919;45.816;3.104;2022-12-07T16:31:06;7.32;;;5.03;;
61038;SDS011;46919;45.816;3.104;2022-12-07T16:33:36;7.65;;;5.15;;
61038;SDS011;46919;45.816;3.104;2022-12-07T16:36:03;9.38;;;5.10;;
61038;SDS011;46919;45.816;3.104;2022-12-07T16:38:31;7.75;;;4.85;;
61038;SDS011;46919;45.816;3.104;2022-12-07T16:40:56;7.07;;;5.03;;
61038;SDS011;46919;45.816;3.104;2022-12-07T16:43:22;6.20;;;4.47;;
61038;SDS011;46919;45.816;3.104;2022-12-07T16:45:47;9.98;;;5.60;;
61038;SDS011;46919;45.816;3.104;2022-12-07T16:48:13;11.80;;;8.38;;
61038;SDS011;46919;45.816;3.104;2022-12-07T16:50:40;8.48;;;6.00;;
61038;SDS011;46919;45.816;3.104;2022-12-07T16:53:06;7.65;;;5.10;;
61038;SDS011;46919;45.816;3.104;2022-12-07T16:55:44;8.57;;;5.38;;
61038;SDS011;46919;45.816;3.104;2022-12-07T16:58:11;7.88;;;5.13;;